Time;durP1;ratioP1;P1;durP2;ratioP2;P2;SDS_P1;SDS_P2;PMS_P1;PMS_P2;Temp;Humidity;BMP_temperature;BMP_pressure;BME280_temperature;BME280_humidity;BME280_pressure;Samples;Min_cycle;Max_cycle;Signal;HPM_P1;HPM_P2
2022/03/17 00:01:03;;;;;;;;;;;;;;;18.06;36.75;101692.91;5075759;28;805;-63
2022/03/17 00:03:28;;;;;;;;;;;;;;;18.13;36.81;101685.25;5076440;28;828;-65
2022/03/17 00:05:54;;;;;;;;;;;;;;;18.48;36.28;101688.53;5076448;28;1025;-64
2022/03/17 00:08:19;;;;;;;;;;;;;;;18.61;35.66;101682.59;5076190;28;757;-66
2022/03/17 00:10:45;;;;;;;;;;;;;;;18.72;35.39;101677.97;5076537;28;777;-65
2022/03/17 00:13:11;;;;;;;;;;;;;;;18.92;35.18;101687.50;5076284;28;1000;-65
2022/03/17 00:15:39;;;;;;;;;;;;;;;18.90;35.39;101684.16;5075002;28;1170;-65
2022/03/17 00:18:05;;;;;;;;;;;;;;;18.89;35.39;101688.84;5076289;28;1968;-66
2022/03/17 00:20:30;;;;;;;;;;;;;;;18.58;35.74;101696.03;5076527;28;746;-63
2022/03/17 00:22:56;;;;;;;;;;;;;;;18.30;36.18;101689.81;5076045;28;816;-63
2022/03/17 00:25:21;;;;;;;;;;;;;;;18.03;36.81;101698.09;5076299;28;860;-64
2022/03/17 00:27:46;;;;;;;;;;;;;;;17.92;36.90;101699.91;5076087;28;868;-65
2022/03/17 00:30:12;;;;;;;;;;;;;;;17.78;37.32;101704.97;5076195;28;785;-62
2022/03/17 00:32:38;;;;;;;;;;;;;;;17.88;37.13;101709.75;5080337;28;863;-62
2022/03/17 00:37:48;;;;;;;;;;;;;;;18.35;36.20;101703.59;5079627;28;1901;-63
2022/03/17 00:40:14;;;;;;;;;;;;;;;18.61;35.92;101703.81;5079988;28;826;-63
2022/03/17 00:42:39;;;;;;;;;;;;;;;18.85;35.36;101706.16;5080032;28;748;-62
2022/03/17 00:45:05;;;;;;;;;;;;;;;19.06;35.10;101716.22;5079761;28;788;-64
2022/03/17 00:47:30;;;;;;;;;;;;;;;19.08;34.82;101711.28;5079769;28;777;-64
2022/03/17 00:49:56;;;;;;;;;;;;;;;19.00;34.94;101710.94;5079567;28;942;-64
2022/03/17 00:52:21;;;;;;;;;;;;;;;17.70;37.63;101722.78;5079457;28;849;-64
2022/03/17 00:54:47;;;;;;;;;;;;;;;17.81;37.31;101726.47;5079643;28;797;-64
2022/03/17 00:57:12;;;;;;;;;;;;;;;17.86;37.36;101725.69;5079077;28;1959;-65
2022/03/17 00:59:38;;;;;;;;;;;;;;;18.09;36.79;101719.06;5079715;28;824;-64
2022/03/17 01:02:04;;;;;;;;;;;;;;;18.41;36.42;101715.47;5079398;28;765;-64
2022/03/17 01:04:30;;;;;;;;;;;;;;;18.70;35.56;101712.41;5079026;28;1018;-63
2022/03/17 01:06:55;;;;;;;;;;;;;;;18.80;35.65;101716.06;5079226;28;1090;-64
2022/03/17 01:09:21;;;;;;;;;;;;;;;18.88;35.17;101728.53;5079488;28;822;-64
2022/03/17 01:11:46;;;;;;;;;;;;;;;18.97;35.03;101723.34;5079490;28;864;-63
2022/03/17 01:14:13;;;;;;;;;;;;;;;18.90;35.06;101728.25;5079056;28;988;-63
2022/03/17 01:16:39;;;;;;;;;;;;;;;18.72;35.72;101732.22;5078899;28;1969;-63
2022/03/17 01:19:05;;;;;;;;;;;;;;;18.32;36.38;101723.41;5078973;28;820;-64
2022/03/17 01:21:30;;;;;;;;;;;;;;;18.13;36.86;101718.28;5079051;28;843;-65
2022/03/17 01:23:56;;;;;;;;;;;;;;;17.91;36.97;101717.53;5079030;28;909;-63
2022/03/17 01:26:21;;;;;;;;;;;;;;;17.72;36.87;101726.09;5079093;28;836;-63
2022/03/17 01:28:47;;;;;;;;;;;;;;;17.55;37.70;101717.91;5078534;28;902;-63
2022/03/17 01:31:13;;;;;;;;;;;;;;;18.03;37.09;101718.19;5078650;28;817;-63
2022/03/17 01:33:38;;;;;;;;;;;;;;;18.28;36.68;101711.25;5079067;28;926;-64
2022/03/17 01:36:05;;;;;;;;;;;;;;;18.54;35.85;101715.03;5078775;28;880;-64
2022/03/17 01:38:31;;;;;;;;;;;;;;;18.61;35.72;101723.91;5078831;28;1972;-64
2022/03/17 01:40:56;;;;;;;;;;;;;;;18.75;35.54;101712.44;5078570;28;821;-62
2022/03/17 01:43:22;;;;;;;;;;;;;;;18.80;35.39;101721.56;5077333;28;880;-62
2022/03/17 01:45:47;;;;;;;;;;;;;;;18.90;35.27;101723.59;5079022;28;750;-63
2022/03/17 01:48:13;;;;;;;;;;;;;;;18.91;35.19;101729.91;5078731;28;897;-64
2022/03/17 01:50:38;;;;;;;;;;;;;;;18.94;35.40;101737.66;5078400;28;863;-64
2022/03/17 01:53:03;;;;;;;;;;;;;;;18.97;35.07;101745.38;5078717;28;830;-63
2022/03/17 01:55:30;;;;;;;;;;;;;;;18.85;35.16;101747.50;5078525;28;819;-64
2022/03/17 01:57:56;;;;;;;;;;;;;;;18.47;35.85;101751.06;5110088;28;1974;-63
2022/03/17 02:00:22;;;;;;;;;;;;;;;18.05;36.45;101760.03;5078523;28;797;-63
2022/03/17 02:02:48;;;;;;;;;;;;;;;17.77;36.91;101767.41;5078346;28;879;-64
2022/03/17 02:05:13;;;;;;;;;;;;;;;17.61;37.27;101766.41;5077697;28;780;-65
2022/03/17 02:07:40;;;;;;;;;;;;;;;17.52;37.23;101769.88;5097473;28;941;-65
2022/03/17 02:10:05;;;;;;;;;;;;;;;17.47;38.35;101778.03;5084010;28;821;-65
2022/03/17 02:15:15;;;;;;;;;;;;;;;18.77;35.78;101771.66;5072969;28;1236;-65
2022/03/17 02:17:40;;;;;;;;;;;;;;;18.81;35.58;101769.22;5077743;28;1964;-66
2022/03/17 02:20:07;;;;;;;;;;;;;;;18.77;35.58;101768.91;5076731;28;1069;-63
2022/03/17 02:22:32;;;;;;;;;;;;;;;18.66;35.70;101761.66;5077461;28;809;-62
2022/03/17 02:27:45;;;;;;;;;;;;;;;18.61;35.84;101770.75;5077550;28;841;-65
2022/03/17 02:30:11;;;;;;;;;;;;;;;18.59;35.88;101758.31;5077409;28;1036;-61
2022/03/17 02:32:36;;;;;;;;;;;;;;;18.61;35.99;101767.97;5077456;28;942;-62
2022/03/17 02:35:03;;;;;;;;;;;;;;;18.58;35.85;101767.66;5077172;28;859;-61
2022/03/17 02:37:28;;;;;;;;;;;;;;;18.66;35.92;101769.94;5077475;28;1979;-63
2022/03/17 02:39:54;;;;;;;;;;;;;;;18.76;35.54;101772.78;5077369;28;820;-59
2022/03/17 02:42:19;;;;;;;;;;;;;;;18.66;36.02;101778.19;5077378;28;904;-63
2022/03/17 02:44:47;;;;;;;;;;;;;;;18.81;35.50;101770.06;5077328;28;825;-61
2022/03/17 02:47:12;;;;;;;;;;;;;;;18.67;35.91;101774.38;5077168;28;853;-61
2022/03/17 02:49:38;;;;;;;;;;;;;;;18.71;35.57;101789.28;5077039;28;982;-61
2022/03/17 02:52:03;;;;;;;;;;;;;;;18.59;36.19;101783.09;5077434;28;947;-61
2022/03/17 02:54:29;;;;;;;;;;;;;;;18.62;35.78;101777.91;5076560;28;769;-62
2022/03/17 02:56:54;;;;;;;;;;;;;;;18.66;35.89;101774.63;5076865;28;1941;-62
2022/03/17 02:59:20;;;;;;;;;;;;;;;18.59;36.18;101791.38;5077324;28;852;-63
2022/03/17 03:01:45;;;;;;;;;;;;;;;18.58;36.07;101779.53;5077010;28;978;-63
2022/03/17 03:04:13;;;;;;;;;;;;;;;18.53;36.01;101796.00;5076529;28;843;-62
2022/03/17 03:06:39;;;;;;;;;;;;;;;18.65;36.09;101804.09;5076751;28;988;-61
2022/03/17 03:09:04;;;;;;;;;;;;;;;18.66;35.87;101811.25;5077268;28;781;-63
2022/03/17 03:11:30;;;;;;;;;;;;;;;18.63;35.79;101817.31;5077078;28;778;-62
2022/03/17 03:13:55;;;;;;;;;;;;;;;18.54;35.89;101816.94;5076702;28;877;-61
2022/03/17 03:16:20;;;;;;;;;;;;;;;18.64;36.00;101819.78;5077085;28;1905;-62
2022/03/17 03:18:46;;;;;;;;;;;;;;;18.63;35.69;101822.81;5076782;28;1156;-63
2022/03/17 03:21:11;;;;;;;;;;;;;;;18.64;35.77;101824.47;5076433;28;750;-63
2022/03/17 03:23:37;;;;;;;;;;;;;;;18.65;35.83;101834.41;5077191;28;868;-63
2022/03/17 03:26:02;;;;;;;;;;;;;;;18.56;36.12;101831.28;5076648;28;841;-61
2022/03/17 03:28:28;;;;;;;;;;;;;;;18.59;35.80;101836.28;5076655;28;924;-62
2022/03/17 03:30:54;;;;;;;;;;;;;;;18.58;36.00;101850.31;5076783;28;825;-60
2022/03/17 03:33:20;;;;;;;;;;;;;;;18.50;36.26;101850.81;5076399;28;922;-63
2022/03/17 03:38:29;;;;;;;;;;;;;;;18.52;35.91;101852.19;5069950;28;1886;-60
2022/03/17 03:40:54;;;;;;;;;;;;;;;18.56;35.94;101863.53;5084806;28;897;-60
2022/03/17 03:43:20;;;;;;;;;;;;;;;18.57;35.96;101851.41;5079688;28;938;-59
2022/03/17 03:45:45;;;;;;;;;;;;;;;18.49;36.36;101854.63;5079148;28;1233;-59
2022/03/17 03:48:11;;;;;;;;;;;;;;;18.55;36.15;101857.19;5073588;28;1241;-60
2022/03/17 03:50:37;;;;;;;;;;;;;;;18.56;36.10;101866.28;5076465;28;769;-61
2022/03/17 03:53:03;;;;;;;;;;;;;;;18.54;36.21;101865.72;5076571;28;865;-61
2022/03/17 03:55:28;;;;;;;;;;;;;;;18.54;35.94;101865.72;5076164;28;872;-58
2022/03/17 03:57:54;;;;;;;;;;;;;;;18.60;35.80;101872.94;5076305;28;2043;-58
2022/03/17 04:02:46;;;;;;;;;;;;;;;18.64;35.98;101879.56;5073868;28;1281;-60
2022/03/17 04:05:11;;;;;;;;;;;;;;;18.50;35.93;101886.59;5076577;28;795;-60
2022/03/17 04:07:37;;;;;;;;;;;;;;;18.63;35.66;101877.91;5080395;28;752;-61
2022/03/17 04:10:03;;;;;;;;;;;;;;;18.66;35.61;101893.09;5080271;28;849;-59
2022/03/17 04:12:28;;;;;;;;;;;;;;;18.61;35.90;101897.47;5080292;28;1060;-59
2022/03/17 04:14:55;;;;;;;;;;;;;;;18.53;35.84;101888.84;5080311;28;1203;-59
2022/03/17 04:17:20;;;;;;;;;;;;;;;18.52;36.19;101892.66;5077107;28;1979;-60
2022/03/17 04:19:45;;;;;;;;;;;;;;;18.41;36.28;101903.59;5075413;28;1170;-61
2022/03/17 04:22:11;;;;;;;;;;;;;;;18.31;36.19;101906.22;5079750;28;1194;-62
2022/03/17 04:24:37;;;;;;;;;;;;;;;18.13;36.78;101918.38;5080429;28;903;-62
2022/03/17 04:27:05;;;;;;;;;;;;;;;18.10;36.70;101924.41;5079756;28;856;-66
2022/03/17 04:29:30;;;;;;;;;;;;;;;18.03;36.61;101941.09;5079779;28;734;-66
2022/03/17 04:31:56;;;;;;;;;;;;;;;17.92;37.02;101939.31;5080084;28;909;-60
2022/03/17 04:34:21;;;;;;;;;;;;;;;18.16;36.61;101945.41;5079343;28;860;-59
2022/03/17 04:36:46;;;;;;;;;;;;;;;18.67;35.65;101964.47;5079883;28;1913;-62
2022/03/17 04:39:12;;;;;;;;;;;;;;;18.88;35.08;101961.94;5078797;28;1092;-60
2022/03/17 04:41:39;;;;;;;;;;;;;;;19.01;34.93;101980.81;5079005;28;1216;-62
2022/03/17 04:44:05;;;;;;;;;;;;;;;19.12;34.63;101974.28;5079996;28;863;-61
2022/03/17 04:46:30;;;;;;;;;;;;;;;19.28;34.44;101977.22;5079541;28;774;-62
2022/03/17 04:48:59;;;;;;;;;;;;;;;18.67;35.48;101983.75;5078955;28;898;-61
2022/03/17 04:51:24;;;;;;;;;;;;;;;18.11;36.77;102000.41;5076791;28;1431;-58
2022/03/17 04:53:49;;;;;;;;;;;;;;;17.96;37.25;102009.25;5075557;28;1454;-59
2022/03/17 04:56:16;;;;;;;;;;;;;;;17.95;36.95;102004.88;5077145;28;1166;-58
2022/03/17 04:58:42;;;;;;;;;;;;;;;18.18;36.65;102008.47;5077902;28;1909;-56
2022/03/17 05:01:08;;;;;;;;;;;;;;;18.48;36.07;102013.53;5078241;28;1337;-58
2022/03/17 05:03:33;;;;;;;;;;;;;;;18.72;35.58;102019.63;5071753;28;834;-58
2022/03/17 05:05:59;;;;;;;;;;;;;;;18.95;35.25;102006.66;5086342;28;1265;-57
2022/03/17 05:08:24;;;;;;;;;;;;;;;19.02;35.20;102023.00;5068212;28;1175;-58
2022/03/17 05:10:52;;;;;;;;;;;;;;;19.05;35.03;102017.78;5075232;28;1167;-58
2022/03/17 05:13:18;;;;;;;;;;;;;;;19.01;35.07;102027.66;5072926;28;1241;-57
2022/03/17 05:15:43;;;;;;;;;;;;;;;19.10;34.76;102031.63;5058564;28;1285;-58
2022/03/17 05:18:09;;;;;;;;;;;;;;;18.80;35.35;102030.19;5052947;28;1906;-58
2022/03/17 05:20:35;;;;;;;;;;;;;;;18.70;35.56;102041.06;5057256;28;1194;-58
2022/03/17 05:23:04;;;;;;;;;;;;;;;18.47;35.87;102040.25;5052942;28;1265;-58
2022/03/17 05:25:31;;;;;;;;;;;;;;;18.34;36.42;102026.88;5052938;28;1278;-58
2022/03/17 05:27:56;;;;;;;;;;;;;;;18.24;36.49;102037.72;5053718;28;1278;-58
2022/03/17 05:30:22;;;;;;;;;;;;;;;18.36;36.26;102032.94;5056414;28;1371;-57
2022/03/17 05:32:47;;;;;;;;;;;;;;;18.29;36.55;102048.81;5033051;28;1809;-58
2022/03/17 05:35:13;;;;;;;;;;;;;;;18.05;36.55;102043.53;5055640;28;1147;-58
2022/03/17 05:37:39;;;;;;;;;;;;;;;18.02;36.89;102052.31;5060183;28;1988;-58
2022/03/17 05:40:06;;;;;;;;;;;;;;;17.98;36.87;102047.53;5064637;28;936;-58
2022/03/17 05:42:31;;;;;;;;;;;;;;;17.88;37.23;102053.69;5078307;28;804;-59
2022/03/17 05:44:57;;;;;;;;;;;;;;;18.02;36.80;102059.72;5078139;28;813;-58
2022/03/17 05:47:22;;;;;;;;;;;;;;;18.07;36.54;102062.53;5062967;28;798;-60
2022/03/17 05:49:48;;;;;;;;;;;;;;;18.13;36.78;102067.03;5057202;28;1010;-59
2022/03/17 05:52:14;;;;;;;;;;;;;;;18.56;35.73;102050.81;5056049;28;1397;-59
2022/03/17 05:54:39;;;;;;;;;;;;;;;18.85;35.42;102070.75;5058282;28;1207;-59
2022/03/17 05:57:04;;;;;;;;;;;;;;;19.20;34.41;102063.19;5063918;28;1905;-61
2022/03/17 05:59:30;;;;;;;;;;;;;;;19.20;34.44;102071.44;5068279;28;865;-61
2022/03/17 06:01:56;;;;;;;;;;;;;;;19.01;34.72;102071.78;5058875;28;863;-59
2022/03/17 06:04:22;;;;;;;;;;;;;;;18.68;35.38;102079.09;5058421;28;893;-61
2022/03/17 06:06:48;;;;;;;;;;;;;;;18.30;35.96;102078.03;5058346;28;733;-61
2022/03/17 06:09:13;;;;;;;;;;;;;;;17.98;36.68;102081.41;5069868;28;849;-60
2022/03/17 06:11:39;;;;;;;;;;;;;;;17.92;36.29;102080.50;5068630;28;793;-59
2022/03/17 06:14:06;;;;;;;;;;;;;;;17.71;36.92;102089.47;5058410;28;981;-60
2022/03/17 06:16:31;;;;;;;;;;;;;;;17.47;37.92;102097.84;5076332;28;1905;-57
2022/03/17 06:18:57;;;;;;;;;;;;;;;17.74;37.35;102094.44;5077999;28;953;-58
2022/03/17 06:21:22;;;;;;;;;;;;;;;18.43;35.94;102094.19;5077815;28;833;-58
2022/03/17 06:23:48;;;;;;;;;;;;;;;18.75;35.46;102099.00;5076362;28;1154;-57
2022/03/17 06:26:13;;;;;;;;;;;;;;;18.35;35.99;102097.38;5075250;28;1146;-58
2022/03/17 06:28:39;;;;;;;;;;;;;;;17.98;36.83;102097.06;5076473;28;1444;-59
2022/03/17 06:31:04;;;;;;;;;;;;;;;17.85;36.65;102109.22;5068244;28;1153;-60
2022/03/17 06:33:29;;;;;;;;;;;;;;;17.63;37.26;102112.72;5076731;28;962;-58
2022/03/17 06:35:55;;;;;;;;;;;;;;;18.07;36.73;102121.16;5077612;28;793;-59
2022/03/17 06:38:20;;;;;;;;;;;;;;;18.76;35.19;102102.59;5083518;28;1913;-60
2022/03/17 06:40:46;;;;;;;;;;;;;;;18.51;35.69;102112.19;5077669;28;813;-59
2022/03/17 06:43:14;;;;;;;;;;;;;;;18.09;36.36;102124.53;5077492;28;1004;-58
2022/03/17 06:45:40;;;;;;;;;;;;;;;17.74;36.97;102127.47;5077610;28;826;-58
2022/03/17 06:48:05;;;;;;;;;;;;;;;17.64;36.93;102124.53;5077351;28;958;-60
2022/03/17 06:50:31;;;;;;;;;;;;;;;17.44;36.60;102134.91;5077222;28;855;-58
2022/03/17 06:52:56;;;;;;;;;;;;;;;17.23;36.59;102132.88;5077833;28;745;-60
2022/03/17 06:55:22;;;;;;;;;;;;;;;17.09;37.07;102143.31;5077500;28;798;-60
2022/03/17 06:57:48;;;;;;;;;;;;;;;17.77;37.47;102144.31;5072469;28;1913;-58
2022/03/17 07:00:14;;;;;;;;;;;;;;;17.66;37.72;102150.72;5069573;28;1158;-58
2022/03/17 07:02:39;;;;;;;;;;;;;;;17.45;37.63;102157.78;5073607;28;1281;-60
2022/03/17 07:05:05;;;;;;;;;;;;;;;17.19;37.99;102184.72;5070809;28;1253;-59
2022/03/17 07:07:30;;;;;;;;;;;;;;;17.21;38.13;102182.59;5069555;28;959;-57
2022/03/17 07:09:56;;;;;;;;;;;;;;;17.28;38.28;102176.97;5077080;28;845;-58
2022/03/17 07:12:22;;;;;;;;;;;;;;;17.76;37.28;102194.09;5073477;28;1143;-58
2022/03/17 07:14:47;;;;;;;;;;;;;;;18.26;36.17;102181.50;5074742;28;1476;-57
2022/03/17 07:17:17;;;;;;;;;;;;;;;18.21;36.37;102200.69;5056972;28;1902;-58
2022/03/17 07:19:42;;;;;;;;;;;;;;;17.58;37.21;102212.47;5056621;28;979;-58
2022/03/17 07:22:08;;;;;;;;;;;;;;;17.28;37.66;102218.19;5064388;28;848;-57
2022/03/17 07:24:33;;;;;;;;;;;;;;;17.50;37.33;102215.63;5075699;28;874;-58
2022/03/17 07:26:59;;;;;;;;;;;;;;;17.26;38.13;102221.19;5051219;28;1164;-57
2022/03/17 07:29:25;;;;;;;;;;;;;;;17.64;37.46;102240.91;5057414;28;1243;-58
2022/03/17 07:31:54;;;;;;;;;;;;;;;18.00;37.02;102238.84;5047440;28;1469;-59
2022/03/17 07:34:20;;;;;;;;;;;;;;;18.20;36.65;102248.56;5056790;28;994;-59
2022/03/17 07:36:46;;;;;;;;;;;;;;;18.06;36.38;102251.66;5057153;28;1910;-58
2022/03/17 07:39:11;;;;;;;;;;;;;;;17.60;37.12;102257.06;5059886;28;1139;-58
2022/03/17 07:41:37;;;;;;;;;;;;;;;17.34;37.77;102269.44;5058783;28;1347;-58
2022/03/17 07:44:02;;;;;;;;;;;;;;;17.54;37.24;102265.47;5068349;28;1266;-57
2022/03/17 07:46:48;;;;;;;;;;;;;;;17.26;37.93;102261.56;5065201;28;1148;-58
2022/03/17 07:49:36;;;;;;;;;;;;;;;17.12;38.34;102283.00;5041140;28;1171;-60
2022/03/17 07:52:02;;;;;;;;;;;;;;;17.25;38.46;102281.88;5057050;28;991;-62
2022/03/17 07:54:27;;;;;;;;;;;;;;;17.51;37.82;102279.72;5056415;28;812;-59
2022/03/17 07:56:54;;;;;;;;;;;;;;;18.05;36.78;102279.44;5072042;28;1910;-60
2022/03/17 07:59:19;;;;;;;;;;;;;;;17.99;36.82;102285.91;5058590;28;1404;-59
2022/03/17 08:01:44;;;;;;;;;;;;;;;17.58;37.27;102283.97;5056920;28;1293;-57
2022/03/17 08:04:10;;;;;;;;;;;;;;;17.40;37.81;102296.00;5052413;28;1175;-58
2022/03/17 08:06:36;;;;;;;;;;;;;;;17.12;37.57;102307.72;5060628;28;738;-61
2022/03/17 08:09:01;;;;;;;;;;;;;;;16.99;38.02;102300.56;5038530;28;876;-61
2022/03/17 08:11:27;;;;;;;;;;;;;;;16.98;38.83;102318.13;5056485;28;869;-59
2022/03/17 08:13:52;;;;;;;;;;;;;;;17.24;38.48;102324.22;5063121;28;820;-59
2022/03/17 08:16:18;;;;;;;;;;;;;;;17.85;36.91;102316.44;5091688;28;963;-59
2022/03/17 08:18:43;;;;;;;;;;;;;;;18.09;36.70;102319.13;5085109;28;1909;-58
2022/03/17 08:21:08;;;;;;;;;;;;;;;18.13;36.42;102329.41;5076225;28;838;-58
2022/03/17 08:23:34;;;;;;;;;;;;;;;18.15;36.27;102333.84;5073150;28;1522;-59
2022/03/17 08:25:59;;;;;;;;;;;;;;;17.85;36.70;102337.59;5073604;28;1217;-60
2022/03/17 08:28:26;;;;;;;;;;;;;;;17.66;37.13;102343.28;5074268;28;1169;-59
2022/03/17 08:30:51;;;;;;;;;;;;;;;17.36;37.34;102349.81;5073312;28;1273;-61
2022/03/17 08:33:17;;;;;;;;;;;;;;;17.27;37.83;102352.06;5067761;28;1208;-59
2022/03/17 08:35:43;;;;;;;;;;;;;;;17.10;38.24;102348.38;5073907;28;787;-59
2022/03/17 08:38:08;;;;;;;;;;;;;;;17.58;37.38;102344.50;5080057;28;1980;-57
2022/03/17 08:40:35;;;;;;;;;;;;;;;18.10;36.52;102348.31;5094917;28;821;-55
2022/03/17 08:43:01;;;;;;;;;;;;;;;18.21;35.90;102352.13;5095501;28;1029;-58
2022/03/17 08:50:54;;;;;;;;;;;;;;;17.19;37.57;102351.59;5086412;28;841;-61
2022/03/17 08:53:20;;;;;;;;;;;;;;;16.93;37.67;102362.00;5072658;28;1138;-59
2022/03/17 08:55:45;;;;;;;;;;;;;;;16.86;38.20;102381.28;5098577;28;837;-60
2022/03/17 08:58:12;;;;;;;;;;;;;;;16.88;38.76;102370.91;5084981;28;1979;-59
2022/03/17 09:00:40;;;;;;;;;;;;;;;17.15;38.08;102391.63;5076023;28;1411;-59
2022/03/17 09:03:05;;;;;;;;;;;;;;;17.38;37.80;102382.56;5068243;28;1487;-58
2022/03/17 09:05:33;;;;;;;;;;;;;;;17.77;36.83;102394.69;5069412;28;1344;-59
2022/03/17 09:08:04;;;;;;;;;;;;;;;17.92;36.59;102396.97;5074391;28;1153;-59
2022/03/17 09:10:30;;;;;;;;;;;;;;;18.08;35.99;102398.13;5076321;28;770;-58
2022/03/17 09:12:57;;;;;;;;;;;;;;;17.74;36.85;102394.34;5079062;28;1044;-58
2022/03/17 09:15:24;;;;;;;;;;;;;;;17.52;37.35;102396.91;5078926;28;1005;-57
2022/03/17 09:17:50;;;;;;;;;;;;;;;17.26;37.58;102410.03;5084680;28;1963;-58
2022/03/17 09:20:15;;;;;;;;;;;;;;;17.33;37.36;102413.50;5075065;28;1213;-59
2022/03/17 09:22:42;;;;;;;;;;;;;;;17.63;37.07;102412.56;5079206;28;1198;-58
2022/03/17 09:25:07;;;;;;;;;;;;;;;18.00;36.38;102405.94;5078938;28;876;-56
2022/03/17 09:27:33;;;;;;;;;;;;;;;18.25;35.70;102411.94;5086130;28;756;-60
2022/03/17 09:29:58;;;;;;;;;;;;;;;18.15;35.67;102411.75;5098457;28;856;-58
2022/03/17 09:32:25;;;;;;;;;;;;;;;17.78;36.36;102418.38;5098818;28;785;-61
2022/03/17 09:34:51;;;;;;;;;;;;;;;17.33;37.12;102419.00;5079824;28;738;-59
2022/03/17 09:37:17;;;;;;;;;;;;;;;17.38;37.23;102413.63;5077915;28;2026;-58
2022/03/17 09:39:45;;;;;;;;;;;;;;;17.26;37.72;102421.88;5076709;28;1159;-57
2022/03/17 09:42:12;;;;;;;;;;;;;;;17.85;36.51;102425.66;5078643;28;785;-58
2022/03/17 09:44:37;;;;;;;;;;;;;;;18.16;35.84;102412.56;5077854;28;848;-57
2022/03/17 09:47:03;;;;;;;;;;;;;;;18.30;35.73;102409.28;5078932;28;777;-58
2022/03/17 09:49:29;;;;;;;;;;;;;;;18.28;35.39;102416.13;5077385;28;936;-58
2022/03/17 09:51:57;;;;;;;;;;;;;;;17.89;35.99;102416.69;5077924;28;1063;-57
2022/03/17 09:54:22;;;;;;;;;;;;;;;17.54;36.51;102423.06;5078082;28;1222;-58
2022/03/17 09:56:48;;;;;;;;;;;;;;;17.44;36.74;102426.41;5077771;28;1967;-58
2022/03/17 09:59:13;;;;;;;;;;;;;;;17.31;37.30;102434.91;5077863;28;999;-58
2022/03/17 10:01:39;;;;;;;;;;;;;;;17.51;36.94;102429.03;5077892;28;1115;-58
2022/03/17 10:04:06;;;;;;;;;;;;;;;17.95;36.25;102428.69;5110092;28;1038;-58
2022/03/17 10:06:32;;;;;;;;;;;;;;;18.32;35.36;102435.75;5077783;28;805;-58
2022/03/17 10:08:58;;;;;;;;;;;;;;;18.40;35.12;102427.94;5077500;28;1036;-58
2022/03/17 10:11:27;;;;;;;;;;;;;;;18.21;35.57;102434.72;5077328;28;1167;-59
2022/03/17 10:13:54;;;;;;;;;;;;;;;17.71;36.27;102438.84;5076887;28;1226;-58
2022/03/17 10:16:20;;;;;;;;;;;;;;;17.43;36.66;102440.41;5108584;28;1198;-58
2022/03/17 10:18:46;;;;;;;;;;;;;;;17.16;37.37;102437.28;5073554;28;1918;-61
2022/03/17 10:21:27;;;;;;;;;;;;;;;17.07;37.73;102434.06;5083997;28;1114;-59
2022/03/17 10:24:04;;;;;;;;;;;;;;;17.45;36.99;102439.09;5071005;28;1201;-58
2022/03/17 10:26:39;;;;;;;;;;;;;;;18.23;35.41;102435.28;5073138;28;885;-58
2022/03/17 10:29:06;;;;;;;;;;;;;;;18.05;35.73;102431.66;5075341;28;781;-60
2022/03/17 10:31:32;;;;;;;;;;;;;;;17.44;36.95;102429.16;5077511;28;1347;-60
2022/03/17 10:33:57;;;;;;;;;;;;;;;17.37;37.05;102439.44;5073939;28;1226;-58
2022/03/17 10:36:23;;;;;;;;;;;;;;;17.38;37.31;102435.63;5077581;28;831;-59
2022/03/17 10:38:51;;;;;;;;;;;;;;;17.76;36.26;102441.72;5077241;28;1970;-57
2022/03/17 10:41:17;;;;;;;;;;;;;;;18.35;35.02;102444.34;5076865;28;906;-59
2022/03/17 10:43:42;;;;;;;;;;;;;;;18.42;34.91;102425.75;5085818;28;1051;-58
2022/03/17 10:46:20;;;;;;;;;;;;;;;18.09;35.65;102434.72;5096909;28;864;-59
2022/03/17 10:48:58;;;;;;;;;;;;;;;17.55;36.49;102430.25;5086944;28;768;-59
2022/03/17 10:51:52;;;;;;;;;;;;;;;17.38;37.10;102435.63;5077457;28;876;-59
2022/03/17 10:54:18;;;;;;;;;;;;;;;17.41;37.16;102437.88;5071563;28;1340;-59
2022/03/17 10:56:56;;;;;;;;;;;;;;;17.41;37.01;102437.88;5087311;28;1901;-59
2022/03/17 10:59:22;;;;;;;;;;;;;;;17.53;36.72;102431.56;5092735;28;845;-59
2022/03/17 11:01:47;;;;;;;;;;;;;;;17.89;36.01;102435.09;5076788;28;1343;-57
2022/03/17 11:04:12;;;;;;;;;;;;;;;18.19;35.26;102428.59;5074399;28;893;-59
2022/03/17 11:06:40;;;;;;;;;;;;;;;18.10;35.33;102430.91;5077140;28;1160;-61
2022/03/17 11:09:08;;;;;;;;;;;;;;;17.73;36.26;102440.28;5076719;28;1170;-60
2022/03/17 11:11:33;;;;;;;;;;;;;;;17.25;37.09;102430.34;5089468;28;778;-60
2022/03/17 11:13:59;;;;;;;;;;;;;;;17.07;37.35;102434.88;5095029;28;1651;-59
2022/03/17 11:16:29;;;;;;;;;;;;;;;17.16;37.46;102440.03;5075937;28;1030;-57
2022/03/17 11:18:54;;;;;;;;;;;;;;;17.38;36.91;102441.13;5075295;28;1980;-59
2022/03/17 11:21:26;;;;;;;;;;;;;;;17.90;36.11;102442.28;5109517;28;765;-59
2022/03/17 11:23:56;;;;;;;;;;;;;;;18.14;35.36;102440.34;5076007;28;1401;-60
2022/03/17 11:26:23;;;;;;;;;;;;;;;18.16;35.42;102440.09;5072664;28;1168;-60
2022/03/17 11:28:48;;;;;;;;;;;;;;;17.83;35.90;102442.41;5073019;28;1290;-61
2022/03/17 11:31:16;;;;;;;;;;;;;;;17.39;36.83;102437.31;5074437;28;1285;-60
2022/03/17 11:33:44;;;;;;;;;;;;;;;17.33;36.62;102446.50;5108403;28;1383;-60
2022/03/17 11:36:10;;;;;;;;;;;;;;;17.16;37.17;102438.13;5074759;28;1202;-60
2022/03/17 11:38:36;;;;;;;;;;;;;;;17.29;36.76;102445.28;5073471;28;1905;-60
2022/03/17 11:41:09;;;;;;;;;;;;;;;17.71;36.29;102450.69;5074784;28;1226;-60
2022/03/17 11:43:58;;;;;;;;;;;;;;;18.11;35.28;102449.94;5073904;28;1218;-60
2022/03/17 11:46:24;;;;;;;;;;;;;;;18.36;35.03;102440.53;5074896;28;1707;-59
2022/03/17 11:48:51;;;;;;;;;;;;;;;18.25;35.00;102438.66;5077268;28;1110;-61
2022/03/17 11:51:16;;;;;;;;;;;;;;;17.85;35.61;102450.44;5071744;28;1162;-60
2022/03/17 11:53:51;;;;;;;;;;;;;;;17.57;36.19;102463.00;5075588;28;1228;-60
2022/03/17 11:56:47;;;;;;;;;;;;;;;17.40;36.38;102455.50;5072504;28;1284;-60
2022/03/17 11:59:16;;;;;;;;;;;;;;;17.36;36.70;102456.19;5063702;28;1453;-58
2022/03/17 12:01:42;;;;;;;;;;;;;;;17.98;35.64;102449.34;5076535;28;1070;-58
2022/03/17 12:04:08;;;;;;;;;;;;;;;17.81;35.71;102449.25;5074871;28;1355;-59
2022/03/17 12:06:37;;;;;;;;;;;;;;;17.42;36.48;102458.81;5069307;28;1348;-58
2022/03/17 12:09:04;;;;;;;;;;;;;;;17.10;37.33;102459.13;5077383;28;1001;-60
2022/03/17 12:11:39;;;;;;;;;;;;;;;17.18;37.27;102468.09;5076770;28;820;-60
2022/03/17 12:14:08;;;;;;;;;;;;;;;17.42;36.75;102475.31;5076857;28;853;-58
2022/03/17 12:16:39;;;;;;;;;;;;;;;18.05;35.38;102472.94;5075780;28;1028;-59
2022/03/17 12:19:05;;;;;;;;;;;;;;;18.36;34.63;102490.09;5085481;28;1027;-60
2022/03/17 12:21:49;;;;;;;;;;;;;;;18.34;34.69;102492.28;5095851;28;739;-60
2022/03/17 12:24:32;;;;;;;;;;;;;;;17.84;35.50;102476.28;5094344;28;873;-59
2022/03/17 12:27:26;;;;;;;;;;;;;;;17.26;36.83;102482.38;5097554;28;1184;-59
2022/03/17 12:30:11;;;;;;;;;;;;;;;17.15;37.04;102479.59;5088118;28;1085;-59
2022/03/17 12:32:46;;;;;;;;;;;;;;;17.19;36.86;102480.78;5107340;27;1261;-59
2022/03/17 12:35:12;;;;;;;;;;;;;;;17.25;37.03;102494.44;5073593;28;1273;-59
2022/03/17 12:37:39;;;;;;;;;;;;;;;17.75;36.15;102497.81;5075339;28;1910;-58
2022/03/17 12:40:05;;;;;;;;;;;;;;;18.21;35.14;102503.56;5073993;28;1115;-58
2022/03/17 12:42:32;;;;;;;;;;;;;;;18.42;34.66;102504.81;5083904;28;1323;-59
2022/03/17 12:45:01;;;;;;;;;;;;;;;18.37;34.56;102511.06;5078472;28;841;-60
2022/03/17 12:47:28;;;;;;;;;;;;;;;17.79;35.63;102502.63;5070052;28;1154;-58
2022/03/17 12:49:54;;;;;;;;;;;;;;;17.52;36.09;102496.72;5069148;28;1150;-59
2022/03/17 12:52:21;;;;;;;;;;;;;;;17.43;36.44;102492.66;5071748;28;1158;-59
2022/03/17 12:54:47;;;;;;;;;;;;;;;17.19;36.59;102508.28;5071120;28;1169;-58
2022/03/17 12:57:13;;;;;;;;;;;;;;;17.50;36.49;102498.03;5074770;28;1980;-59
2022/03/17 12:59:38;;;;;;;;;;;;;;;17.96;35.23;102501.91;5080956;28;1238;-58
2022/03/17 13:02:04;;;;;;;;;;;;;;;17.65;36.06;102509.41;5077409;28;1308;-59
2022/03/17 13:04:30;;;;;;;;;;;;;;;17.27;36.50;102492.28;5106796;27;1169;-58
2022/03/17 13:06:56;;;;;;;;;;;;;;;17.13;37.25;102499.06;5078117;28;1223;-61
2022/03/17 13:09:29;;;;;;;;;;;;;;;17.34;36.58;102502.34;5078511;28;1185;-58